createdAt,value
2023-03-13T00:01:15.578Z,32.25
2023-03-13T00:03:42.342Z,35.00
2023-03-13T00:06:09.123Z,31.60
2023-03-13T00:08:35.598Z,29.20
2023-03-13T00:11:06.882Z,43.63
2023-03-13T00:13:34.007Z,29.38
2023-03-13T00:16:06.274Z,40.83
2023-03-13T00:18:33.030Z,27.17
2023-03-13T00:21:09.902Z,37.78
2023-03-13T00:23:37.992Z,39.30
2023-03-13T00:26:13.612Z,35.97
2023-03-13T00:28:41.684Z,37.50
2023-03-13T00:31:12.314Z,40.78
2023-03-13T00:33:40.926Z,33.03
2023-03-13T00:36:30.698Z,44.50
2023-03-13T00:38:57.905Z,35.42
2023-03-13T00:41:27.142Z,37.80
2023-03-13T00:43:54.121Z,35.13
2023-03-13T00:46:23.692Z,39.08
2023-03-13T00:48:50.608Z,39.28
2023-03-13T00:51:19.613Z,40.13
2023-03-13T00:53:46.914Z,35.25
2023-03-13T00:56:15.425Z,40.92
2023-03-13T00:58:43.638Z,40.97
2023-03-13T01:01:19.235Z,39.33
2023-03-13T01:03:48.756Z,33.00
2023-03-13T01:06:17.668Z,37.38
2023-03-13T01:08:45.359Z,39.45
2023-03-13T01:11:15.181Z,31.30
2023-03-13T01:13:41.881Z,47.90
2023-03-13T01:16:14.279Z,38.63
2023-03-13T01:18:44.315Z,31.52
2023-03-13T01:21:11.677Z,32.55
2023-03-13T01:23:38.158Z,37.75
2023-03-13T01:26:06.273Z,36.90
2023-03-13T01:28:33.681Z,41.58
2023-03-13T01:31:01.363Z,30.10
2023-03-13T01:33:27.852Z,35.08
2023-03-13T01:36:01.801Z,31.27
2023-03-13T01:38:28.298Z,31.35
2023-03-13T01:40:55.198Z,35.13
2023-03-13T01:43:27.732Z,28.40
2023-03-13T01:46:18.403Z,27.33
2023-03-13T01:48:53.508Z,32.30
2023-03-13T01:51:25.916Z,33.50
2023-03-13T01:54:12.211Z,37.03
2023-03-13T01:57:07.697Z,31.92
2023-03-13T01:59:41.922Z,31.98
2023-03-13T02:02:09.148Z,28.63
2023-03-13T02:04:39.758Z,28.77
2023-03-13T02:07:20.280Z,30.95
2023-03-13T02:09:52.102Z,25.90
2023-03-13T02:12:26.274Z,31.55
2023-03-13T02:14:53.648Z,31.92
2023-03-13T02:17:20.321Z,29.58
2023-03-13T02:19:52.048Z,29.40
2023-03-13T02:22:28.895Z,26.83
2023-03-13T02:25:04.127Z,33.90
2023-03-13T02:27:30.724Z,36.38
2023-03-13T02:29:58.250Z,33.08
2023-03-13T02:32:26.814Z,21.75
2023-03-13T02:34:58.343Z,25.75
2023-03-13T02:37:28.618Z,31.73
2023-03-13T02:39:57.265Z,29.23
2023-03-13T02:42:24.692Z,35.85
2023-03-13T02:44:52.155Z,26.80
2023-03-13T02:47:24.504Z,25.73
2023-03-13T02:49:51.129Z,36.58
2023-03-13T02:52:26.188Z,25.90
2023-03-13T02:55:06.650Z,28.77
2023-03-13T02:57:33.987Z,32.65
2023-03-13T03:00:00.461Z,39.50
2023-03-13T03:02:26.922Z,35.70
2023-03-13T03:04:53.392Z,21.30
2023-03-13T03:07:19.797Z,35.25
2023-03-13T03:09:46.220Z,26.60
2023-03-13T03:12:12.699Z,29.60
2023-03-13T03:14:39.460Z,25.27
2023-03-13T03:17:06.001Z,32.67
2023-03-13T03:19:32.442Z,37.67
2023-03-13T03:21:58.874Z,26.58
2023-03-13T03:24:25.415Z,30.13
2023-03-13T03:26:51.846Z,32.58
2023-03-13T03:29:19.026Z,29.52
2023-03-13T03:31:45.573Z,41.65
2023-03-13T03:34:12.177Z,35.40
2023-03-13T03:36:39.917Z,33.03
2023-03-13T03:39:06.424Z,33.45
2023-03-13T03:41:32.917Z,30.17
2023-03-13T03:43:59.450Z,33.92
2023-03-13T03:46:25.966Z,33.55
2023-03-13T03:48:52.447Z,23.40
2023-03-13T03:51:18.888Z,41.53
2023-03-13T03:53:45.301Z,33.10
2023-03-13T03:56:11.798Z,40.85
2023-03-13T03:58:38.295Z,34.78
2023-03-13T04:01:05.125Z,28.77
2023-03-13T04:03:32.005Z,26.17
2023-03-13T04:05:58.485Z,42.70
2023-03-13T04:08:25.232Z,42.97
2023-03-13T04:10:52.192Z,40.00
2023-03-13T04:13:18.695Z,32.03
2023-03-13T04:15:45.409Z,30.20
2023-03-13T04:18:11.915Z,34.03
2023-03-13T04:20:38.353Z,25.77
2023-03-13T04:23:04.909Z,32.72
2023-03-13T04:25:31.490Z,41.13
2023-03-13T04:27:57.952Z,31.98
2023-03-13T04:30:24.396Z,32.35
2023-03-13T04:32:51.201Z,31.67
2023-03-13T04:35:17.794Z,24.55
2023-03-13T04:37:44.273Z,40.63
2023-03-13T04:40:12.641Z,32.58
2023-03-13T04:42:40.318Z,37.35
2023-03-13T04:45:08.063Z,44.70
2023-03-13T04:47:34.524Z,39.10
2023-03-13T04:50:00.922Z,33.72
2023-03-13T04:52:27.380Z,35.47
2023-03-13T04:54:53.856Z,31.42
2023-03-13T04:57:20.268Z,23.83
2023-03-13T04:59:46.848Z,36.17
2023-03-13T05:02:14.001Z,30.95
2023-03-13T05:04:40.567Z,43.40
2023-03-13T05:07:07.180Z,31.00
2023-03-13T05:09:33.641Z,49.78
2023-03-13T05:12:00.179Z,35.78
2023-03-13T05:14:26.701Z,33.92
2023-03-13T05:16:53.137Z,32.67
2023-03-13T05:19:19.700Z,33.00
2023-03-13T05:21:46.118Z,32.03
2023-03-13T05:24:12.571Z,37.75
2023-03-13T05:26:39.093Z,46.78
2023-03-13T05:29:05.544Z,32.15
2023-03-13T05:31:32.082Z,41.85
2023-03-13T05:33:58.616Z,38.30
2023-03-13T05:36:25.088Z,37.75
2023-03-13T05:38:51.700Z,29.48
2023-03-13T05:41:18.183Z,48.15
2023-03-13T05:43:44.636Z,42.83
2023-03-13T05:46:11.126Z,38.53
2023-03-13T05:48:37.650Z,42.17
2023-03-13T05:51:04.340Z,35.85
2023-03-13T05:53:30.776Z,34.08
2023-03-13T05:55:57.284Z,51.05
2023-03-13T05:58:23.989Z,39.42
2023-03-13T06:00:50.442Z,30.55
2023-03-13T06:03:17.117Z,34.00
2023-03-13T06:05:43.549Z,37.47
2023-03-13T06:08:10.062Z,41.50
2023-03-13T06:10:36.557Z,41.60
2023-03-13T06:13:13.905Z,36.78
2023-03-13T06:15:52.852Z,41.28
2023-03-13T06:18:19.327Z,37.88
2023-03-13T06:20:45.894Z,35.83
2023-03-13T06:23:12.395Z,38.63
2023-03-13T06:25:38.946Z,31.25
2023-03-13T06:28:05.383Z,36.35
2023-03-13T06:30:31.902Z,29.33
2023-03-13T06:32:58.871Z,32.47
2023-03-13T06:35:25.629Z,43.67
2023-03-13T06:37:52.151Z,37.40
2023-03-13T06:40:18.737Z,36.92
2023-03-13T06:42:45.148Z,40.58
2023-03-13T06:45:11.756Z,39.55
2023-03-13T06:47:38.233Z,50.08
2023-03-13T06:50:05.016Z,33.65
2023-03-13T06:52:43.016Z,38.90
2023-03-13T06:55:10.825Z,51.65
2023-03-13T06:57:37.435Z,40.08
2023-03-13T07:00:06.100Z,55.33
2023-03-13T07:02:32.745Z,38.95
2023-03-13T07:04:59.287Z,40.17
2023-03-13T07:07:31.718Z,37.90
2023-03-13T07:09:59.017Z,41.45
2023-03-13T07:12:25.605Z,46.42
2023-03-13T07:14:52.168Z,46.50
2023-03-13T07:17:18.706Z,37.13
2023-03-13T07:19:48.397Z,48.85
2023-03-13T07:22:15.026Z,42.80
2023-03-13T07:24:42.538Z,45.35
2023-03-13T07:27:09.413Z,47.25
2023-03-13T07:29:36.088Z,39.45
2023-03-13T07:32:02.801Z,36.63
2023-03-13T07:34:29.897Z,42.70
2023-03-13T07:36:56.638Z,52.03
2023-03-13T07:39:23.642Z,44.95
2023-03-13T07:41:50.569Z,42.78
2023-03-13T07:44:17.305Z,38.45
2023-03-13T07:46:44.316Z,41.67
2023-03-13T07:49:12.204Z,44.20
2023-03-13T07:51:43.829Z,42.25
2023-03-13T07:54:11.660Z,45.20
2023-03-13T07:56:38.772Z,39.95
2023-03-13T07:59:05.526Z,40.78
2023-03-13T08:01:39.954Z,35.60
2023-03-13T08:04:06.507Z,34.40
2023-03-13T08:06:35.780Z,35.08
2023-03-13T08:09:02.714Z,31.58
2023-03-13T08:11:29.957Z,44.08
2023-03-13T08:13:57.645Z,39.08
2023-03-13T08:16:27.278Z,45.17
2023-03-13T08:18:58.689Z,42.40
2023-03-13T08:21:30.369Z,35.55
2023-03-13T08:26:30.386Z,40.17
2023-03-13T08:28:59.442Z,44.47
2023-03-13T08:31:31.410Z,40.00
2023-03-13T08:33:58.476Z,40.83
2023-03-13T08:36:43.163Z,32.78
2023-03-13T08:39:13.982Z,38.92
2023-03-13T08:41:41.589Z,34.88
2023-03-13T08:44:11.344Z,35.83
2023-03-13T08:46:38.354Z,37.63
2023-03-13T08:49:07.271Z,38.65
2023-03-13T08:51:34.462Z,38.30
2023-03-13T08:54:02.353Z,34.80
2023-03-13T08:56:30.584Z,29.05
2023-03-13T08:58:59.906Z,35.05
2023-03-13T09:01:29.761Z,47.03
2023-03-13T09:03:57.857Z,32.78
2023-03-13T09:06:24.661Z,42.30
2023-03-13T09:08:51.178Z,39.65
2023-03-13T09:11:20.987Z,26.70
2023-03-13T09:13:50.497Z,29.98
2023-03-13T09:16:20.216Z,31.02
2023-03-13T09:18:47.159Z,30.13
2023-03-13T09:21:18.381Z,28.98
2023-03-13T09:23:45.323Z,32.38
2023-03-13T09:26:15.067Z,25.05
2023-03-13T09:28:45.910Z,28.50
2023-03-13T09:31:15.445Z,30.75
2023-03-13T09:33:43.413Z,26.00
2023-03-13T09:36:10.938Z,23.65
2023-03-13T09:38:38.316Z,22.25
2023-03-13T09:41:20.018Z,24.95
2023-03-13T09:46:48.381Z,23.40
2023-03-13T09:49:51.310Z,30.17
2023-03-13T09:52:49.913Z,29.65
2023-03-13T09:55:34.735Z,22.75
2023-03-13T09:58:13.594Z,28.58
2023-03-13T10:00:43.187Z,16.20
2023-03-13T10:03:26.396Z,21.00
2023-03-13T10:05:57.376Z,14.85
2023-03-13T10:08:26.548Z,19.50
2023-03-13T10:11:02.099Z,15.77
2023-03-13T10:13:56.883Z,13.90
2023-03-13T10:16:38.951Z,15.93
2023-03-13T10:19:14.441Z,17.10
2023-03-13T10:21:43.426Z,17.50
2023-03-13T10:24:34.927Z,16.30
2023-03-13T10:27:01.550Z,19.88
2023-03-13T10:29:30.669Z,17.52
2023-03-13T10:32:05.803Z,20.13
2023-03-13T10:34:52.644Z,24.58
2023-03-13T10:37:30.020Z,15.80
2023-03-13T10:40:23.197Z,23.20
2023-03-13T10:42:52.093Z,9.20
2023-03-13T10:45:25.256Z,10.40
2023-03-13T10:47:56.860Z,14.73
2023-03-13T10:50:26.543Z,14.43
2023-03-13T10:52:54.856Z,8.30
2023-03-13T10:55:24.512Z,9.77
2023-03-13T10:58:05.762Z,12.65
2023-03-13T11:00:42.576Z,12.15
2023-03-13T11:03:20.006Z,10.10
2023-03-13T11:05:58.556Z,14.27
2023-03-13T11:08:27.663Z,11.50
2023-03-13T11:10:57.630Z,8.48
2023-03-13T11:13:38.260Z,6.95
2023-03-13T11:16:19.456Z,11.27
2023-03-13T11:19:02.337Z,7.18
2023-03-13T11:21:39.470Z,9.02
2023-03-13T11:24:16.215Z,4.72
2023-03-13T11:27:04.275Z,4.93
2023-03-13T11:29:48.547Z,5.43
2023-03-13T11:32:24.696Z,4.93
2023-03-13T11:34:57.253Z,5.90
2023-03-13T11:37:26.824Z,5.70
2023-03-13T11:39:56.747Z,9.23
2023-03-13T11:42:39.496Z,4.97
2023-03-13T11:45:46.792Z,6.47
2023-03-13T11:48:25.640Z,6.93
2023-03-13T11:51:01.139Z,5.53
2023-03-13T11:53:40.856Z,6.63
2023-03-13T11:56:35.607Z,4.30
2023-03-13T11:59:07.867Z,4.50
2023-03-13T12:01:46.607Z,7.25
2023-03-13T12:04:29.042Z,4.57
2023-03-13T12:06:59.150Z,4.32
2023-03-13T12:09:28.580Z,6.30
2023-03-13T12:12:03.670Z,3.10
2023-03-13T12:14:53.064Z,4.28
2023-03-13T12:17:35.065Z,3.03
2023-03-13T12:20:24.092Z,3.17
2023-03-13T12:23:20.525Z,3.25
2023-03-13T12:26:04.838Z,2.40
2023-03-13T12:28:52.687Z,4.80
2023-03-13T12:31:28.898Z,1.23
2023-03-13T12:34:09.764Z,2.45
2023-03-13T12:36:42.892Z,2.17
2023-03-13T12:39:24.461Z,2.30
2023-03-13T12:42:12.018Z,3.28
2023-03-13T12:44:39.976Z,5.55
2023-03-13T12:47:34.227Z,6.15
2023-03-13T12:50:19.805Z,5.57
2023-03-13T12:52:46.223Z,1.65
2023-03-13T12:55:40.148Z,3.00
2023-03-13T12:58:22.939Z,1.67
2023-03-13T13:00:51.010Z,3.20
2023-03-13T13:03:35.713Z,3.22
2023-03-13T13:06:04.920Z,3.38
2023-03-13T13:08:36.170Z,6.57
2023-03-13T13:11:33.840Z,5.47
2023-03-13T13:14:25.893Z,3.85
2023-03-13T13:17:21.273Z,2.92
2023-03-13T13:19:48.038Z,2.78
2023-03-13T13:22:38.811Z,4.38
2023-03-13T13:25:11.693Z,5.10
2023-03-13T13:27:38.079Z,3.10
2023-03-13T13:30:27.652Z,2.42
2023-03-13T13:32:55.768Z,2.95
2023-03-13T13:35:30.216Z,2.92
2023-03-13T13:38:18.489Z,3.30
2023-03-13T13:41:14.376Z,4.18
2023-03-13T13:43:40.738Z,5.38
2023-03-13T13:46:31.421Z,3.80
2023-03-13T13:49:07.476Z,4.13
2023-03-13T13:51:38.602Z,3.42
2023-03-13T13:54:30.032Z,4.63
2023-03-13T13:56:59.190Z,6.43
2023-03-13T13:59:31.679Z,3.50
2023-03-13T14:02:04.150Z,4.00
2023-03-13T14:04:55.992Z,2.75
2023-03-13T14:07:37.203Z,1.45
2023-03-13T14:10:19.519Z,4.15
2023-03-13T14:12:57.905Z,3.15
2023-03-13T14:15:34.598Z,6.40
2023-03-13T14:18:16.302Z,2.70
2023-03-13T14:20:58.984Z,3.97
2023-03-13T14:23:31.120Z,5.15
2023-03-13T14:25:57.649Z,6.32
2023-03-13T14:28:27.540Z,3.00
2023-03-13T14:30:57.018Z,3.63
2023-03-13T14:33:26.762Z,4.22
2023-03-13T14:35:54.073Z,6.43
2023-03-13T14:38:26.309Z,3.17
2023-03-13T14:40:55.389Z,4.22
2023-03-13T14:43:24.922Z,9.82
2023-03-13T14:45:51.915Z,4.75
2023-03-13T14:48:32.394Z,8.50
2023-03-13T14:51:20.006Z,4.22
2023-03-13T14:54:00.814Z,5.97
2023-03-13T14:56:43.020Z,9.85
2023-03-13T14:59:24.271Z,7.55
2023-03-13T15:02:23.154Z,5.55
2023-03-13T15:04:59.833Z,3.28
2023-03-13T15:07:41.782Z,5.07
2023-03-13T15:10:26.819Z,6.90
2023-03-13T15:12:53.419Z,4.90
2023-03-13T15:15:20.057Z,9.20
2023-03-13T15:17:46.649Z,5.50
2023-03-13T15:20:14.569Z,2.47
2023-03-13T15:22:44.270Z,3.13
2023-03-13T15:25:23.149Z,5.90
2023-03-13T15:27:50.583Z,3.40
2023-03-13T15:30:19.630Z,3.45
2023-03-13T15:32:47.022Z,5.88
2023-03-13T15:35:22.036Z,2.35
2023-03-13T15:37:48.518Z,2.90
2023-03-13T15:40:16.817Z,2.15
2023-03-13T15:42:43.399Z,2.53
2023-03-13T15:45:10.224Z,5.10
2023-03-13T15:47:36.727Z,4.85
2023-03-13T15:50:04.403Z,12.00
2023-03-13T15:52:31.486Z,5.45
2023-03-13T15:54:57.922Z,3.00
2023-03-13T15:57:26.258Z,3.33
2023-03-13T15:59:54.126Z,5.38
2023-03-13T16:02:23.181Z,5.15
2023-03-13T16:04:50.964Z,4.18
2023-03-13T16:07:21.552Z,3.53
2023-03-13T16:09:49.003Z,3.15
2023-03-13T16:12:15.428Z,6.70
2023-03-13T16:14:42.230Z,2.72
2023-03-13T16:17:17.170Z,5.93
2023-03-13T16:19:44.919Z,3.70
2023-03-13T16:22:12.045Z,3.55
2023-03-13T16:24:39.454Z,3.72
2023-03-13T16:27:13.869Z,5.53
2023-03-13T16:29:40.490Z,4.25
2023-03-13T16:32:06.973Z,4.68
2023-03-13T16:34:33.434Z,3.17
2023-03-13T16:36:59.946Z,4.50
2023-03-13T16:39:26.622Z,8.45
2023-03-13T16:41:53.161Z,4.68
2023-03-13T16:44:19.656Z,3.55
2023-03-13T16:46:59.215Z,3.60
2023-03-13T16:49:31.105Z,4.78
2023-03-13T16:51:57.554Z,7.47
2023-03-13T16:54:24.010Z,5.05
2023-03-13T16:56:50.536Z,8.32
2023-03-13T16:59:18.173Z,6.10
2023-03-13T17:01:46.972Z,6.57
2023-03-13T17:04:13.891Z,4.90
2023-03-13T17:06:42.607Z,3.03
2023-03-13T17:09:15.572Z,5.03
2023-03-13T17:11:42.623Z,8.35
2023-03-13T17:14:09.414Z,3.33
2023-03-13T17:16:39.604Z,6.47
2023-03-13T17:19:08.943Z,6.22
2023-03-13T17:21:36.678Z,7.30
2023-03-13T17:24:03.371Z,6.88
2023-03-13T17:26:33.554Z,2.60
2023-03-13T17:29:00.525Z,3.42
2023-03-13T17:31:28.334Z,5.18
2023-03-13T17:33:54.929Z,4.60
2023-03-13T17:36:27.242Z,3.50
2023-03-13T17:38:59.264Z,6.53
2023-03-13T17:41:28.239Z,3.10
2023-03-13T17:43:55.208Z,4.97
2023-03-13T17:46:30.831Z,2.75
2023-03-13T17:48:57.333Z,3.97
2023-03-13T17:51:26.770Z,3.63
2023-03-13T17:53:55.015Z,2.45
2023-03-13T17:56:27.172Z,5.65
2023-03-13T17:58:57.693Z,3.42
2023-03-13T18:01:26.452Z,4.13
2023-03-13T18:03:53.003Z,4.18
2023-03-13T18:06:29.458Z,6.63
2023-03-13T18:08:58.240Z,4.43
2023-03-13T18:11:26.436Z,5.50
2023-03-13T18:13:53.228Z,2.83
2023-03-13T18:16:24.711Z,3.42
2023-03-13T18:18:52.137Z,5.03
2023-03-13T18:21:20.195Z,3.97
2023-03-13T18:23:46.676Z,3.67
2023-03-13T18:26:25.263Z,6.22
2023-03-13T18:28:52.564Z,3.03
2023-03-13T18:31:19.178Z,3.55
2023-03-13T18:33:47.660Z,6.68
2023-03-13T18:36:19.564Z,4.40
2023-03-13T18:38:47.732Z,5.43
2023-03-13T18:41:15.538Z,3.05
2023-03-13T18:43:43.438Z,5.93
2023-03-13T18:46:26.589Z,5.18
2023-03-13T18:48:53.725Z,3.90
2023-03-13T18:51:24.210Z,2.78
2023-03-13T18:53:52.202Z,4.03
2023-03-13T18:56:28.024Z,3.13
2023-03-13T18:58:55.839Z,7.55
2023-03-13T19:01:25.094Z,4.68
2023-03-13T19:03:52.156Z,4.70
2023-03-13T19:06:33.871Z,3.33
2023-03-13T19:09:42.207Z,4.43
2023-03-13T19:12:08.350Z,4.95
2023-03-13T19:14:34.883Z,4.93
2023-03-13T19:17:01.653Z,6.30
2023-03-13T19:19:28.741Z,7.22
2023-03-13T19:21:56.273Z,5.53
2023-03-13T19:24:26.451Z,4.70
2023-03-13T19:26:58.340Z,10.88
2023-03-13T19:29:27.788Z,6.18
2023-03-13T19:31:54.877Z,2.25
2023-03-13T19:34:21.997Z,4.22
2023-03-13T19:36:49.361Z,4.85
2023-03-13T19:39:24.084Z,5.57
2023-03-13T19:41:51.617Z,4.55
2023-03-13T19:44:19.949Z,4.82
2023-03-13T19:46:46.836Z,4.53
2023-03-13T19:49:16.082Z,7.95
2023-03-13T19:51:42.980Z,3.25
2023-03-13T19:54:10.778Z,8.07
2023-03-13T19:56:39.331Z,4.72
2023-03-13T19:59:24.245Z,5.95
2023-03-13T20:01:50.837Z,5.50
2023-03-13T20:04:17.453Z,5.03
2023-03-13T20:06:45.381Z,5.53
2023-03-13T20:09:17.375Z,7.47
2023-03-13T20:11:44.575Z,9.45
2023-03-13T20:14:11.391Z,6.63
2023-03-13T20:16:38.628Z,9.90
2023-03-13T20:19:05.280Z,5.85
2023-03-13T20:21:34.665Z,6.82
2023-03-13T20:24:01.469Z,7.65
2023-03-13T20:26:29.301Z,7.75
2023-03-13T20:28:56.945Z,11.27
2023-03-13T20:31:26.270Z,6.45
2023-03-13T20:33:52.769Z,3.72
2023-03-13T20:36:20.709Z,9.00
2023-03-13T20:38:47.607Z,5.68
2023-03-13T20:41:16.121Z,5.57
2023-03-13T20:43:42.908Z,4.82
2023-03-13T20:46:09.642Z,7.03
2023-03-13T20:48:39.142Z,5.55
2023-03-13T20:51:07.547Z,3.70
2023-03-13T20:53:38.909Z,10.50
2023-03-13T20:56:07.271Z,7.88
2023-03-13T20:58:37.636Z,7.57
2023-03-13T21:01:06.336Z,6.65
2023-03-13T21:03:35.361Z,7.68
2023-03-13T21:06:11.961Z,7.50
2023-03-13T21:08:39.023Z,6.22
2023-03-13T21:11:15.585Z,5.18
2023-03-13T21:13:42.072Z,7.10
2023-03-13T21:16:08.836Z,6.35
2023-03-13T21:18:35.441Z,4.18
2023-03-13T21:21:07.044Z,6.88
2023-03-13T21:26:00.601Z,5.18
2023-03-13T21:28:28.026Z,3.10
2023-03-13T21:30:55.207Z,4.78
2023-03-13T21:33:21.968Z,2.47
2023-03-13T21:35:49.734Z,3.67
2023-03-13T21:38:16.695Z,6.70
2023-03-13T21:40:43.323Z,7.18
2023-03-13T21:43:09.824Z,4.65
2023-03-13T21:45:36.539Z,4.00
2023-03-13T21:48:03.090Z,5.38
2023-03-13T21:50:29.628Z,2.45
2023-03-13T21:52:56.032Z,9.80
2023-03-13T21:55:22.475Z,2.47
2023-03-13T21:57:48.990Z,4.63
2023-03-13T22:00:15.991Z,6.00
2023-03-13T22:02:44.196Z,4.22
2023-03-13T22:05:10.889Z,6.40
2023-03-13T22:07:37.319Z,2.63
2023-03-13T22:10:04.567Z,2.58
2023-03-13T22:12:31.045Z,2.38
2023-03-13T22:14:57.915Z,4.15
2023-03-13T22:17:24.706Z,2.72
2023-03-13T22:19:51.220Z,2.65
2023-03-13T22:22:19.904Z,4.53
2023-03-13T22:24:46.645Z,2.38
2023-03-13T22:27:13.551Z,1.13
2023-03-13T22:29:40.029Z,1.63
2023-03-13T22:32:06.588Z,3.90
2023-03-13T22:34:33.127Z,3.88
2023-03-13T22:36:59.603Z,4.28
2023-03-13T22:39:26.090Z,2.67
2023-03-13T22:41:52.679Z,3.60
2023-03-13T22:44:19.403Z,2.35
2023-03-13T22:46:45.839Z,1.92
2023-03-13T22:49:12.298Z,4.05
2023-03-13T22:51:38.756Z,3.08
2023-03-13T22:54:05.323Z,3.30
2023-03-13T22:56:31.956Z,12.25
2023-03-13T22:58:58.456Z,5.13
2023-03-13T23:01:26.452Z,4.07
2023-03-13T23:03:52.977Z,2.40
2023-03-13T23:06:23.007Z,4.93
2023-03-13T23:08:50.512Z,3.30
2023-03-13T23:11:18.207Z,1.63
2023-03-13T23:13:44.911Z,3.47
2023-03-13T23:16:12.836Z,2.70
2023-03-13T23:18:40.199Z,2.38
2023-03-13T23:21:12.814Z,3.13
2023-03-13T23:23:39.909Z,2.25
2023-03-13T23:26:09.079Z,1.20
2023-03-13T23:28:36.953Z,2.05
2023-03-13T23:31:15.862Z,2.10
2023-03-13T23:33:43.310Z,1.73
2023-03-13T23:36:13.180Z,2.55
2023-03-13T23:38:40.409Z,1.02
2023-03-13T23:41:08.998Z,2.28
2023-03-13T23:43:35.811Z,3.95
2023-03-13T23:46:02.357Z,1.10
2023-03-13T23:48:28.919Z,1.38
2023-03-13T23:50:55.373Z,3.40
2023-03-13T23:53:22.144Z,3.72
2023-03-13T23:55:57.278Z,5.80
2023-03-13T23:58:23.901Z,2.72
